Startpagina
METAR-TAF:

METAR-TAF

Vliegvelden :

Flughafen Linz

Linz, Oostenrijk

breedte: 48-14N, lengte: 014-11E, hoogte: 298 m

Actueel weer

Dit bericht is 12 minuten geleden gemaakt, om 22:50 UTC
Wind 2 kt uit het zuidwesten
Temperatuur 14°C
Vochtigheid 77%
Druk 1005 hPa
Zicht 10 km of meer
Weinig wolken op 8000 ft

METAR: LOWL 052250Z AUTO 23002KT 9999 FEW080 14/10 Q1005

Tijdstip: 01:02 (23:02 UTC)

Verwachting

Dit bericht is 5 uur en het 47 minuten geleden gemaakt, om 17:15 UTC
Verwachting geldig van 05 om 18 UTC tot 06 om 18 UTC
Wind 5 kt uit het westzuidwesten
Zicht 10 km of meer
Weinig wolken op 2000 ft
Gebroken wolken op 4000 ft
Tijdelijke
van 05 om 18 UTC tot 06 om 06 UTC
Wind 10 kt uit het westnoordwesten
lichte regenbuien
Tijdelijke
van 06 om 06 UTC tot 06 om 12 UTC
Wind 5 kt uit het oosten
Tijdelijke
van 06 om 12 UTC tot 06 om 18 UTC
Wind 5 kt uit het noorden

TAF: LOWL 051715Z 0518/0618 25005KT 9999 FEW020 BKN040 TX20/0614Z TN12/0603Z TEMPO 0518/0606 29010KT -SHRA TEMPO 0606/0612 09005KT TEMPO 0612/0618 36005KT

Waarnemingen en weersverwachtingen van meer dan 4000 vliegvelden (METAR en TAF).

De beschikbare stations zijn de gele en rode punten op de kaart.

Ga met uw muis naar het station om de naam te zien.

Klik dan om waarnemingen en weersverwachtingen te zien.

kaart wijzigen: klik op de groene knoppen met een zwart kruis om in te zoomen, op de groene knop met een streepje om uit te zoomen of op de groene pijlen voor aangrenzende kaarten.


METAR-TAF: